sensor_id;sensor_type;location;lat;lon;timestamp;pressure;altitude;pressure_sealevel;temperature;humidity
33151;BME280;19508;42.578;23.416;2024-03-22T00:00:01;93740.72;;;3.86;60.29
33151;BME280;19508;42.578;23.416;2024-03-22T00:02:26;93737.78;;;3.94;59.57
33151;BME280;19508;42.578;23.416;2024-03-22T00:04:51;93731.47;;;3.88;60.09
33151;BME280;19508;42.578;23.416;2024-03-22T00:07:17;93734.38;;;3.80;60.28
33151;BME280;19508;42.578;23.416;2024-03-22T00:09:42;93731.41;;;3.63;60.81
33151;BME280;19508;42.578;23.416;2024-03-22T00:12:07;93731.78;;;3.67;59.92
33151;BME280;19508;42.578;23.416;2024-03-22T00:14:33;93726.06;;;3.63;60.61
33151;BME280;19508;42.578;23.416;2024-03-22T00:16:58;93723.59;;;3.68;60.58
33151;BME280;19508;42.578;23.416;2024-03-22T00:19:24;93731.66;;;3.55;61.33
33151;BME280;19508;42.578;23.416;2024-03-22T00:21:49;93733.13;;;3.51;61.77
33151;BME280;19508;42.578;23.416;2024-03-22T00:24:15;93725.97;;;3.45;61.50
33151;BME280;19508;42.578;23.416;2024-03-22T00:26:40;93720.22;;;3.48;62.34
33151;BME280;19508;42.578;23.416;2024-03-22T00:29:06;93722.28;;;3.46;62.64
33151;BME280;19508;42.578;23.416;2024-03-22T00:31:31;93726.88;;;3.26;63.05
33151;BME280;19508;42.578;23.416;2024-03-22T00:33:57;93727.03;;;3.37;62.67
33151;BME280;19508;42.578;23.416;2024-03-22T00:36:22;93727.00;;;3.44;61.36
33151;BME280;19508;42.578;23.416;2024-03-22T00:38:47;93729.09;;;3.35;62.53
33151;BME280;19508;42.578;23.416;2024-03-22T00:41:13;93731.34;;;3.32;63.27
33151;BME280;19508;42.578;23.416;2024-03-22T00:43:38;93723.78;;;3.29;64.11
33151;BME280;19508;42.578;23.416;2024-03-22T00:46:04;93745.47;;;3.32;64.15
33151;BME280;19508;42.578;23.416;2024-03-22T00:48:29;93730.00;;;3.09;64.20
33151;BME280;19508;42.578;23.416;2024-03-22T00:50:55;93742.88;;;3.19;64.03
33151;BME280;19508;42.578;23.416;2024-03-22T00:53:20;93737.34;;;3.14;64.73
33151;BME280;19508;42.578;23.416;2024-03-22T00:55:45;93749.44;;;3.17;64.82
33151;BME280;19508;42.578;23.416;2024-03-22T00:58:16;93724.25;;;3.13;64.84
33151;BME280;19508;42.578;23.416;2024-03-22T01:00:41;93736.91;;;3.24;65.24
33151;BME280;19508;42.578;23.416;2024-03-22T01:03:07;93733.66;;;3.15;65.90
33151;BME280;19508;42.578;23.416;2024-03-22T01:05:33;93738.56;;;3.18;65.75
33151;BME280;19508;42.578;23.416;2024-03-22T01:07:59;93735.31;;;3.09;66.05
33151;BME280;19508;42.578;23.416;2024-03-22T01:10:24;93741.09;;;2.93;66.82
33151;BME280;19508;42.578;23.416;2024-03-22T01:12:50;93734.53;;;3.02;66.35
33151;BME280;19508;42.578;23.416;2024-03-22T01:15:15;93726.34;;;2.97;65.95
33151;BME280;19508;42.578;23.416;2024-03-22T01:17:41;93743.53;;;3.08;65.55
33151;BME280;19508;42.578;23.416;2024-03-22T01:20:06;93738.44;;;2.93;66.10
33151;BME280;19508;42.578;23.416;2024-03-22T01:22:32;93743.19;;;2.78;67.08
33151;BME280;19508;42.578;23.416;2024-03-22T01:24:57;93748.50;;;2.78;67.53
33151;BME280;19508;42.578;23.416;2024-03-22T01:27:23;93743.38;;;2.70;68.24
33151;BME280;19508;42.578;23.416;2024-03-22T01:29:48;93751.78;;;2.67;68.74
33151;BME280;19508;42.578;23.416;2024-03-22T01:32:14;93746.69;;;2.65;68.88
33151;BME280;19508;42.578;23.416;2024-03-22T01:34:39;93748.91;;;2.75;68.05
33151;BME280;19508;42.578;23.416;2024-03-22T01:37:05;93737.09;;;2.58;68.79
33151;BME280;19508;42.578;23.416;2024-03-22T01:39:31;93734.00;;;2.47;71.00
33151;BME280;19508;42.578;23.416;2024-03-22T01:41:56;93744.03;;;2.59;70.41
33151;BME280;19508;42.578;23.416;2024-03-22T01:44:29;93742.78;;;2.54;70.82
33151;BME280;19508;42.578;23.416;2024-03-22T01:46:56;93739.53;;;2.52;70.61
33151;BME280;19508;42.578;23.416;2024-03-22T01:49:22;93735.88;;;2.40;71.63
33151;BME280;19508;42.578;23.416;2024-03-22T01:51:50;93737.28;;;2.36;72.30
33151;BME280;19508;42.578;23.416;2024-03-22T01:54:16;93738.72;;;2.45;71.61
33151;BME280;19508;42.578;23.416;2024-03-22T01:56:42;93740.34;;;2.20;73.22
33151;BME280;19508;42.578;23.416;2024-03-22T01:59:08;93744.03;;;2.19;73.27
33151;BME280;19508;42.578;23.416;2024-03-22T02:01:35;93727.28;;;2.18;72.43
33151;BME280;19508;42.578;23.416;2024-03-22T02:04:05;93744.47;;;2.22;72.08
33151;BME280;19508;42.578;23.416;2024-03-22T02:06:31;93746.91;;;2.11;72.36
33151;BME280;19508;42.578;23.416;2024-03-22T02:08:57;93744.44;;;2.03;73.40
33151;BME280;19508;42.578;23.416;2024-03-22T02:11:23;93740.34;;;2.13;72.51
33151;BME280;19508;42.578;23.416;2024-03-22T02:13:48;93741.38;;;1.99;72.92
33151;BME280;19508;42.578;23.416;2024-03-22T02:16:14;93741.13;;;1.87;73.81
33151;BME280;19508;42.578;23.416;2024-03-22T02:18:39;93741.94;;;1.75;74.82
33151;BME280;19508;42.578;23.416;2024-03-22T02:21:04;93737.47;;;1.75;74.97
33151;BME280;19508;42.578;23.416;2024-03-22T02:23:36;93726.88;;;1.88;75.21
33151;BME280;19508;42.578;23.416;2024-03-22T02:26:03;93744.22;;;1.91;74.27
33151;BME280;19508;42.578;23.416;2024-03-22T02:28:29;93750.34;;;1.91;74.93
33151;BME280;19508;42.578;23.416;2024-03-22T02:30:55;93749.75;;;1.89;75.92
33151;BME280;19508;42.578;23.416;2024-03-22T02:33:20;93744.84;;;2.00;75.05
33151;BME280;19508;42.578;23.416;2024-03-22T02:35:47;93750.97;;;2.00;74.79
33151;BME280;19508;42.578;23.416;2024-03-22T02:38:12;93748.91;;;1.95;75.03
33151;BME280;19508;42.578;23.416;2024-03-22T02:40:38;93754.59;;;1.79;75.25
33151;BME280;19508;42.578;23.416;2024-03-22T02:43:03;93755.84;;;1.77;76.15
33151;BME280;19508;42.578;23.416;2024-03-22T02:45:30;93763.81;;;1.83;75.70
33151;BME280;19508;42.578;23.416;2024-03-22T02:47:56;93770.16;;;1.82;75.39
33151;BME280;19508;42.578;23.416;2024-03-22T02:50:21;93766.06;;;1.86;75.04
33151;BME280;19508;42.578;23.416;2024-03-22T02:52:48;93752.97;;;1.72;74.63
33151;BME280;19508;42.578;23.416;2024-03-22T02:55:14;93756.63;;;1.57;75.73
33151;BME280;19508;42.578;23.416;2024-03-22T02:57:39;93758.66;;;1.62;76.56
33151;BME280;19508;42.578;23.416;2024-03-22T03:00:05;93767.63;;;1.61;75.94
33151;BME280;19508;42.578;23.416;2024-03-22T03:02:31;93772.16;;;1.67;75.87
33151;BME280;19508;42.578;23.416;2024-03-22T03:04:56;93767.69;;;1.74;75.39
33151;BME280;19508;42.578;23.416;2024-03-22T03:07:25;93778.47;;;1.66;75.03
33151;BME280;19508;42.578;23.416;2024-03-22T03:09:50;93769.84;;;1.51;75.85
33151;BME280;19508;42.578;23.416;2024-03-22T03:12:16;93777.81;;;1.51;76.60
33151;BME280;19508;42.578;23.416;2024-03-22T03:14:41;93776.22;;;1.56;76.60
33151;BME280;19508;42.578;23.416;2024-03-22T03:17:07;93772.94;;;1.61;76.45
33151;BME280;19508;42.578;23.416;2024-03-22T03:19:32;93781.13;;;1.66;76.20
33151;BME280;19508;42.578;23.416;2024-03-22T03:21:58;93767.25;;;1.64;76.37
33151;BME280;19508;42.578;23.416;2024-03-22T03:24:23;93774.56;;;1.62;76.08
33151;BME280;19508;42.578;23.416;2024-03-22T03:26:48;93781.13;;;1.66;75.73
33151;BME280;19508;42.578;23.416;2024-03-22T03:29:14;93785.19;;;1.55;76.66
33151;BME280;19508;42.578;23.416;2024-03-22T03:31:40;93792.53;;;1.60;76.00
33151;BME280;19508;42.578;23.416;2024-03-22T03:34:05;93786.16;;;1.41;76.81
33151;BME280;19508;42.578;23.416;2024-03-22T03:36:30;93785.50;;;1.32;77.92
33151;BME280;19508;42.578;23.416;2024-03-22T03:38:56;93797.19;;;1.45;77.64
33151;BME280;19508;42.578;23.416;2024-03-22T03:41:21;93794.31;;;1.39;77.96
33151;BME280;19508;42.578;23.416;2024-03-22T03:43:47;93787.75;;;1.35;77.80
33151;BME280;19508;42.578;23.416;2024-03-22T03:46:12;93802.50;;;1.51;77.48
33151;BME280;19508;42.578;23.416;2024-03-22T03:48:38;93800.69;;;1.52;77.67
33151;BME280;19508;42.578;23.416;2024-03-22T03:51:03;93791.25;;;1.42;77.53
33151;BME280;19508;42.578;23.416;2024-03-22T03:53:29;93807.00;;;1.51;78.08
33151;BME280;19508;42.578;23.416;2024-03-22T03:55:55;93804.53;;;1.42;78.16
33151;BME280;19508;42.578;23.416;2024-03-22T03:58:20;93810.28;;;1.53;77.89
33151;BME280;19508;42.578;23.416;2024-03-22T04:00:46;93814.56;;;1.54;77.48
33151;BME280;19508;42.578;23.416;2024-03-22T04:03:11;93807.78;;;1.45;77.75
33151;BME280;19508;42.578;23.416;2024-03-22T04:05:37;93808.81;;;1.44;78.07
33151;BME280;19508;42.578;23.416;2024-03-22T04:08:02;93815.50;;;1.33;78.05
33151;BME280;19508;42.578;23.416;2024-03-22T04:10:28;93811.47;;;1.37;78.51
33151;BME280;19508;42.578;23.416;2024-03-22T04:12:53;93812.69;;;1.41;78.44
33151;BME280;19508;42.578;23.416;2024-03-22T04:15:19;93814.28;;;1.35;78.72
33151;BME280;19508;42.578;23.416;2024-03-22T04:17:44;93814.72;;;1.39;78.29
33151;BME280;19508;42.578;23.416;2024-03-22T04:20:10;93820.22;;;1.37;78.32
33151;BME280;19508;42.578;23.416;2024-03-22T04:22:36;93825.53;;;1.44;78.25
33151;BME280;19508;42.578;23.416;2024-03-22T04:25:02;93833.50;;;1.37;78.39
33151;BME280;19508;42.578;23.416;2024-03-22T04:27:27;93828.56;;;1.34;78.99
33151;BME280;19508;42.578;23.416;2024-03-22T04:29:53;93821.88;;;1.38;78.58
33151;BME280;19508;42.578;23.416;2024-03-22T04:32:18;93833.72;;;1.42;78.61
33151;BME280;19508;42.578;23.416;2024-03-22T04:34:44;93838.09;;;1.22;78.83
33151;BME280;19508;42.578;23.416;2024-03-22T04:37:10;93832.34;;;1.12;79.56
33151;BME280;19508;42.578;23.416;2024-03-22T04:39:37;93834.84;;;1.27;79.61
33151;BME280;19508;42.578;23.416;2024-03-22T04:42:03;93836.31;;;1.29;79.39
33151;BME280;19508;42.578;23.416;2024-03-22T04:44:29;93846.75;;;1.37;79.34
33151;BME280;19508;42.578;23.416;2024-03-22T04:46:54;93842.03;;;1.33;79.13
33151;BME280;19508;42.578;23.416;2024-03-22T04:49:20;93835.75;;;1.40;78.57
33151;BME280;19508;42.578;23.416;2024-03-22T04:51:47;93851.09;;;1.52;78.19
33151;BME280;19508;42.578;23.416;2024-03-22T04:54:12;93842.69;;;1.41;77.95
33151;BME280;19508;42.578;23.416;2024-03-22T04:56:39;93829.19;;;1.36;78.81
33151;BME280;19508;42.578;23.416;2024-03-22T04:59:05;93834.31;;;1.45;79.04
33151;BME280;19508;42.578;23.416;2024-03-22T05:01:30;93854.59;;;1.59;78.43
33151;BME280;19508;42.578;23.416;2024-03-22T05:03:55;93848.69;;;1.57;78.85
33151;BME280;19508;42.578;23.416;2024-03-22T05:06:21;93849.00;;;1.88;79.16
33151;BME280;19508;42.578;23.416;2024-03-22T05:08:46;93844.19;;;2.25;78.28
33151;BME280;19508;42.578;23.416;2024-03-22T05:11:12;93843.41;;;2.71;78.39
33151;BME280;19508;42.578;23.416;2024-03-22T05:13:37;93839.91;;;3.03;75.77
33151;BME280;19508;42.578;23.416;2024-03-22T05:16:04;93847.38;;;3.46;74.75
33151;BME280;19508;42.578;23.416;2024-03-22T05:18:30;93847.50;;;3.78;72.55
33151;BME280;19508;42.578;23.416;2024-03-22T05:20:55;93854.25;;;4.18;70.61
33151;BME280;19508;42.578;23.416;2024-03-22T05:23:21;93852.66;;;4.49;67.62
33151;BME280;19508;42.578;23.416;2024-03-22T05:25:46;93847.34;;;4.74;64.80
33151;BME280;19508;42.578;23.416;2024-03-22T05:28:12;93856.25;;;5.11;64.63
33151;BME280;19508;42.578;23.416;2024-03-22T05:30:37;93853.00;;;5.52;63.49
33151;BME280;19508;42.578;23.416;2024-03-22T05:33:02;93855.03;;;5.93;61.66
33151;BME280;19508;42.578;23.416;2024-03-22T05:35:28;93850.00;;;6.34;59.42
33151;BME280;19508;42.578;23.416;2024-03-22T05:37:53;93848.81;;;6.60;58.76
33151;BME280;19508;42.578;23.416;2024-03-22T05:40:19;93855.22;;;7.24;56.35
33151;BME280;19508;42.578;23.416;2024-03-22T05:42:44;93854.53;;;7.63;54.14
33151;BME280;19508;42.578;23.416;2024-03-22T05:45:09;93858.13;;;7.57;52.38
33151;BME280;19508;42.578;23.416;2024-03-22T05:47:35;93859.41;;;7.55;53.79
33151;BME280;19508;42.578;23.416;2024-03-22T05:50:02;93856.47;;;7.91;52.89
33151;BME280;19508;42.578;23.416;2024-03-22T05:52:28;93850.44;;;8.25;51.30
33151;BME280;19508;42.578;23.416;2024-03-22T05:54:54;93854.94;;;8.47;51.08
33151;BME280;19508;42.578;23.416;2024-03-22T05:57:20;93858.09;;;8.73;49.43
33151;BME280;19508;42.578;23.416;2024-03-22T05:59:46;93862.19;;;8.92;48.78
33151;BME280;19508;42.578;23.416;2024-03-22T06:02:11;93860.41;;;8.81;49.05
33151;BME280;19508;42.578;23.416;2024-03-22T06:04:37;93850.53;;;8.87;48.70
33151;BME280;19508;42.578;23.416;2024-03-22T06:07:02;93852.09;;;8.83;48.84
33151;BME280;19508;42.578;23.416;2024-03-22T06:09:29;93863.09;;;8.81;48.84
33151;BME280;19508;42.578;23.416;2024-03-22T06:12:17;93860.88;;;8.78;48.90
33151;BME280;19508;42.578;23.416;2024-03-22T06:14:43;93861.22;;;8.82;48.82
33151;BME280;19508;42.578;23.416;2024-03-22T06:17:08;93864.75;;;8.70;49.37
33151;BME280;19508;42.578;23.416;2024-03-22T06:19:37;93863.69;;;9.00;49.27
33151;BME280;19508;42.578;23.416;2024-03-22T06:22:03;93856.19;;;9.19;48.29
33151;BME280;19508;42.578;23.416;2024-03-22T06:24:28;93865.16;;;9.41;48.55
33151;BME280;19508;42.578;23.416;2024-03-22T06:26:54;93858.22;;;9.62;47.60
33151;BME280;19508;42.578;23.416;2024-03-22T06:29:20;93857.94;;;9.80;46.69
33151;BME280;19508;42.578;23.416;2024-03-22T06:31:46;93855.25;;;10.19;46.38
33151;BME280;19508;42.578;23.416;2024-03-22T06:34:11;93854.56;;;10.51;45.47
33151;BME280;19508;42.578;23.416;2024-03-22T06:36:37;93861.50;;;10.95;45.17
33151;BME280;19508;42.578;23.416;2024-03-22T06:39:02;93861.22;;;11.24;43.72
33151;BME280;19508;42.578;23.416;2024-03-22T06:41:31;93860.00;;;11.10;42.92
33151;BME280;19508;42.578;23.416;2024-03-22T06:43:57;93855.97;;;11.39;43.02
33151;BME280;19508;42.578;23.416;2024-03-22T06:46:22;93866.78;;;11.44;42.82
33151;BME280;19508;42.578;23.416;2024-03-22T06:48:48;93872.28;;;11.54;42.39
33151;BME280;19508;42.578;23.416;2024-03-22T06:51:13;93867.75;;;11.65;41.62
33151;BME280;19508;42.578;23.416;2024-03-22T06:53:39;93873.09;;;11.92;40.64
33151;BME280;19508;42.578;23.416;2024-03-22T06:56:04;93875.31;;;12.48;39.29
33151;BME280;19508;42.578;23.416;2024-03-22T06:58:30;93866.78;;;12.86;37.77
33151;BME280;19508;42.578;23.416;2024-03-22T07:00:55;93867.59;;;12.97;37.81
33151;BME280;19508;42.578;23.416;2024-03-22T07:03:21;93865.72;;;12.92;36.80
33151;BME280;19508;42.578;23.416;2024-03-22T07:05:49;93867.09;;;13.05;35.85
33151;BME280;19508;42.578;23.416;2024-03-22T07:08:15;93877.75;;;13.78;37.50
33151;BME280;19508;42.578;23.416;2024-03-22T07:10:40;93873.53;;;14.42;35.50
33151;BME280;19508;42.578;23.416;2024-03-22T07:13:07;93879.38;;;14.84;34.24
33151;BME280;19508;42.578;23.416;2024-03-22T07:15:33;93877.75;;;14.88;34.07
33151;BME280;19508;42.578;23.416;2024-03-22T07:17:58;93877.66;;;15.04;34.93
33151;BME280;19508;42.578;23.416;2024-03-22T07:20:25;93876.94;;;14.83;35.41
33151;BME280;19508;42.578;23.416;2024-03-22T07:22:50;93873.13;;;15.38;35.22
33151;BME280;19508;42.578;23.416;2024-03-22T07:25:16;93868.09;;;15.61;33.09
33151;BME280;19508;42.578;23.416;2024-03-22T07:27:42;93877.31;;;15.55;33.77
33151;BME280;19508;42.578;23.416;2024-03-22T07:30:08;93871.66;;;15.51;32.95
33151;BME280;19508;42.578;23.416;2024-03-22T07:32:34;93877.09;;;15.90;34.66
33151;BME280;19508;42.578;23.416;2024-03-22T07:34:59;93875.03;;;15.77;33.09
33151;BME280;19508;42.578;23.416;2024-03-22T07:37:25;93872.19;;;15.92;33.43
33151;BME280;19508;42.578;23.416;2024-03-22T07:39:50;93869.63;;;15.72;33.80
33151;BME280;19508;42.578;23.416;2024-03-22T07:42:16;93877.94;;;15.86;34.41
33151;BME280;19508;42.578;23.416;2024-03-22T07:44:44;93870.22;;;15.98;32.71
33151;BME280;19508;42.578;23.416;2024-03-22T07:47:10;93860.00;;;15.50;34.10
33151;BME280;19508;42.578;23.416;2024-03-22T07:49:35;93874.84;;;15.97;32.50
33151;BME280;19508;42.578;23.416;2024-03-22T07:52:02;93877.31;;;15.65;32.44
33151;BME280;19508;42.578;23.416;2024-03-22T07:54:27;93870.16;;;15.74;32.97
33151;BME280;19508;42.578;23.416;2024-03-22T07:56:52;93876.22;;;15.66;32.72
33151;BME280;19508;42.578;23.416;2024-03-22T07:59:18;93877.84;;;15.62;33.53
33151;BME280;19508;42.578;23.416;2024-03-22T08:01:43;93876.63;;;15.78;33.12
33151;BME280;19508;42.578;23.416;2024-03-22T08:04:09;93872.94;;;15.98;31.80
33151;BME280;19508;42.578;23.416;2024-03-22T08:06:34;93881.59;;;16.29;32.62
33151;BME280;19508;42.578;23.416;2024-03-22T08:08:59;93876.91;;;16.11;33.65
33151;BME280;19508;42.578;23.416;2024-03-22T08:11:27;93880.91;;;15.50;33.00
33151;BME280;19508;42.578;23.416;2024-03-22T08:13:52;93880.28;;;15.19;33.71
33151;BME280;19508;42.578;23.416;2024-03-22T08:16:17;93879.66;;;15.32;33.57
33151;BME280;19508;42.578;23.416;2024-03-22T08:18:44;93874.59;;;15.65;32.82
33151;BME280;19508;42.578;23.416;2024-03-22T08:21:10;93877.44;;;15.78;32.44
33151;BME280;19508;42.578;23.416;2024-03-22T08:23:35;93874.41;;;15.85;32.01
33151;BME280;19508;42.578;23.416;2024-03-22T08:26:01;93873.13;;;15.77;32.80
33151;BME280;19508;42.578;23.416;2024-03-22T08:28:26;93870.69;;;16.34;34.78
33151;BME280;19508;42.578;23.416;2024-03-22T08:30:51;93860.56;;;16.40;31.75
33151;BME280;19508;42.578;23.416;2024-03-22T08:33:18;93880.13;;;16.65;31.02
33151;BME280;19508;42.578;23.416;2024-03-22T08:35:43;93869.97;;;15.94;32.73
33151;BME280;19508;42.578;23.416;2024-03-22T08:38:08;93870.59;;;16.44;31.30
33151;BME280;19508;42.578;23.416;2024-03-22T08:40:39;93877.16;;;15.80;33.60
33151;BME280;19508;42.578;23.416;2024-03-22T08:43:05;93872.97;;;16.51;32.36
33151;BME280;19508;42.578;23.416;2024-03-22T08:45:32;93883.41;;;17.10;30.44
33151;BME280;19508;42.578;23.416;2024-03-22T08:47:58;93869.88;;;17.24;29.69
33151;BME280;19508;42.578;23.416;2024-03-22T08:50:23;93873.94;;;17.64;29.37
33151;BME280;19508;42.578;23.416;2024-03-22T08:52:52;93865.06;;;18.24;29.41
33151;BME280;19508;42.578;23.416;2024-03-22T08:55:18;93882.56;;;16.91;30.43
33151;BME280;19508;42.578;23.416;2024-03-22T08:57:43;93881.91;;;16.27;31.69
33151;BME280;19508;42.578;23.416;2024-03-22T09:00:09;93868.06;;;17.19;30.66
33151;BME280;19508;42.578;23.416;2024-03-22T09:02:36;93874.13;;;17.68;28.96
33151;BME280;19508;42.578;23.416;2024-03-22T09:05:05;93877.75;;;17.63;29.78
33151;BME280;19508;42.578;23.416;2024-03-22T09:07:31;93869.56;;;18.61;28.06
33151;BME280;19508;42.578;23.416;2024-03-22T09:09:56;93866.19;;;18.83;27.43
33151;BME280;19508;42.578;23.416;2024-03-22T09:12:22;93862.47;;;19.29;26.72
33151;BME280;19508;42.578;23.416;2024-03-22T09:14:47;93864.09;;;18.61;27.50
33151;BME280;19508;42.578;23.416;2024-03-22T09:17:12;93857.63;;;18.29;28.29
33151;BME280;19508;42.578;23.416;2024-03-22T09:19:38;93862.31;;;18.70;28.59
33151;BME280;19508;42.578;23.416;2024-03-22T09:22:03;93856.38;;;18.08;29.32
33151;BME280;19508;42.578;23.416;2024-03-22T09:24:29;93856.50;;;17.84;29.02
33151;BME280;19508;42.578;23.416;2024-03-22T09:26:54;93848.13;;;17.24;29.17
33151;BME280;19508;42.578;23.416;2024-03-22T09:29:20;93864.63;;;16.90;30.96
33151;BME280;19508;42.578;23.416;2024-03-22T09:31:45;93851.44;;;17.78;29.71
33151;BME280;19508;42.578;23.416;2024-03-22T09:34:12;93861.59;;;17.53;29.36
33151;BME280;19508;42.578;23.416;2024-03-22T09:36:37;93853.00;;;18.57;29.93
33151;BME280;19508;42.578;23.416;2024-03-22T09:39:03;93849.38;;;17.69;29.11
33151;BME280;19508;42.578;23.416;2024-03-22T09:41:31;93855.38;;;16.91;29.44
33151;BME280;19508;42.578;23.416;2024-03-22T09:43:58;93862.56;;;16.82;29.36
33151;BME280;19508;42.578;23.416;2024-03-22T09:46:25;93846.34;;;18.50;29.06
33151;BME280;19508;42.578;23.416;2024-03-22T09:48:52;93841.97;;;19.54;27.47
33151;BME280;19508;42.578;23.416;2024-03-22T09:51:17;93835.84;;;19.84;26.98
33151;BME280;19508;42.578;23.416;2024-03-22T09:53:44;93845.06;;;19.38;26.42
33151;BME280;19508;42.578;23.416;2024-03-22T09:56:14;93831.66;;;19.28;26.62
33151;BME280;19508;42.578;23.416;2024-03-22T09:58:40;93831.78;;;18.41;28.05
33151;BME280;19508;42.578;23.416;2024-03-22T10:01:06;93843.47;;;18.14;28.10
33151;BME280;19508;42.578;23.416;2024-03-22T10:03:31;93844.09;;;18.24;28.28
33151;BME280;19508;42.578;23.416;2024-03-22T10:05:57;93836.16;;;18.69;28.24
33151;BME280;19508;42.578;23.416;2024-03-22T10:08:23;93833.56;;;18.04;27.83
33151;BME280;19508;42.578;23.416;2024-03-22T10:10:48;93833.34;;;17.11;29.73
33151;BME280;19508;42.578;23.416;2024-03-22T10:13:14;93839.81;;;16.25;31.44
33151;BME280;19508;42.578;23.416;2024-03-22T10:15:39;93835.03;;;17.07;29.40
33151;BME280;19508;42.578;23.416;2024-03-22T10:18:04;93839.50;;;18.06;28.54
33151;BME280;19508;42.578;23.416;2024-03-22T10:20:30;93840.00;;;18.08;26.94
33151;BME280;19508;42.578;23.416;2024-03-22T10:22:56;93834.19;;;17.63;28.03
33151;BME280;19508;42.578;23.416;2024-03-22T10:25:23;93832.91;;;17.04;29.71
33151;BME280;19508;42.578;23.416;2024-03-22T10:27:49;93844.06;;;16.84;29.10
33151;BME280;19508;42.578;23.416;2024-03-22T10:30:16;93828.16;;;17.66;29.34
33151;BME280;19508;42.578;23.416;2024-03-22T10:32:43;93830.09;;;19.00;26.98
33151;BME280;19508;42.578;23.416;2024-03-22T10:35:12;93817.50;;;19.26;27.88
33151;BME280;19508;42.578;23.416;2024-03-22T10:37:38;93824.19;;;18.24;27.99
33151;BME280;19508;42.578;23.416;2024-03-22T10:40:04;93814.47;;;17.20;30.23
33151;BME280;19508;42.578;23.416;2024-03-22T10:42:40;93816.06;;;18.38;29.55
33151;BME280;19508;42.578;23.416;2024-03-22T10:45:07;93815.47;;;19.32;27.07
33151;BME280;19508;42.578;23.416;2024-03-22T10:47:34;93812.47;;;20.00;26.92
33151;BME280;19508;42.578;23.416;2024-03-22T10:50:07;93805.84;;;21.03;25.58
33151;BME280;19508;42.578;23.416;2024-03-22T10:52:58;93806.31;;;20.48;24.30
33151;BME280;19508;42.578;23.416;2024-03-22T10:55:30;93796.13;;;19.06;25.72
33151;BME280;19508;42.578;23.416;2024-03-22T10:57:57;93800.56;;;19.02;26.60
33151;BME280;19508;42.578;23.416;2024-03-22T11:00:34;93787.09;;;20.71;27.54
33151;BME280;19508;42.578;23.416;2024-03-22T11:03:04;93790.06;;;20.21;25.28
33151;BME280;19508;42.578;23.416;2024-03-22T11:05:30;93790.19;;;20.87;24.89
33151;BME280;19508;42.578;23.416;2024-03-22T11:08:05;93776.91;;;21.20;23.38
33151;BME280;19508;42.578;23.416;2024-03-22T11:10:33;93776.28;;;21.49;22.78
33151;BME280;19508;42.578;23.416;2024-03-22T11:13:06;93769.31;;;21.17;22.93
33151;BME280;19508;42.578;23.416;2024-03-22T11:15:33;93769.19;;;21.56;23.33
33151;BME280;19508;42.578;23.416;2024-03-22T11:17:59;93771.56;;;21.23;25.35
33151;BME280;19508;42.578;23.416;2024-03-22T11:20:25;93763.72;;;21.74;23.57
33151;BME280;19508;42.578;23.416;2024-03-22T11:22:54;93768.88;;;21.40;23.00
33151;BME280;19508;42.578;23.416;2024-03-22T11:25:20;93779.38;;;19.80;25.07
33151;BME280;19508;42.578;23.416;2024-03-22T11:27:46;93786.94;;;17.22;28.07
33151;BME280;19508;42.578;23.416;2024-03-22T11:30:12;93790.41;;;17.08;27.73
33151;BME280;19508;42.578;23.416;2024-03-22T11:32:39;93775.94;;;16.94;27.46
33151;BME280;19508;42.578;23.416;2024-03-22T11:35:13;93774.09;;;16.65;27.62
33151;BME280;19508;42.578;23.416;2024-03-22T11:37:39;93773.22;;;16.51;29.24
33151;BME280;19508;42.578;23.416;2024-03-22T11:40:08;93762.22;;;18.57;26.78
33151;BME280;19508;42.578;23.416;2024-03-22T11:42:39;93754.13;;;20.36;25.10
33151;BME280;19508;42.578;23.416;2024-03-22T11:45:08;93746.34;;;22.63;22.60
33151;BME280;19508;42.578;23.416;2024-03-22T11:47:34;93738.81;;;23.61;22.15
33151;BME280;19508;42.578;23.416;2024-03-22T11:50:03;93752.25;;;21.89;22.66
33151;BME280;19508;42.578;23.416;2024-03-22T11:52:29;93746.47;;;19.17;24.95
33151;BME280;19508;42.578;23.416;2024-03-22T11:54:56;93760.69;;;18.37;27.86
33151;BME280;19508;42.578;23.416;2024-03-22T11:57:22;93749.84;;;20.13;26.83
33151;BME280;19508;42.578;23.416;2024-03-22T11:59:48;93740.97;;;20.07;25.23
33151;BME280;19508;42.578;23.416;2024-03-22T12:02:14;93742.47;;;20.53;25.29
33151;BME280;19508;42.578;23.416;2024-03-22T12:04:41;93738.41;;;20.50;25.14
33151;BME280;19508;42.578;23.416;2024-03-22T12:07:10;93732.34;;;20.62;25.28
33151;BME280;19508;42.578;23.416;2024-03-22T12:09:36;93732.16;;;21.33;22.63
33151;BME280;19508;42.578;23.416;2024-03-22T12:12:01;93721.06;;;22.11;22.20
33151;BME280;19508;42.578;23.416;2024-03-22T12:14:28;93719.69;;;23.44;20.86
33151;BME280;19508;42.578;23.416;2024-03-22T12:16:54;93711.38;;;23.31;20.82
33151;BME280;19508;42.578;23.416;2024-03-22T12:19:19;93711.50;;;25.20;19.78
33151;BME280;19508;42.578;23.416;2024-03-22T12:21:44;93697.44;;;25.37;19.57
33151;BME280;19508;42.578;23.416;2024-03-22T12:24:10;93691.00;;;27.27;18.08
33151;BME280;19508;42.578;23.416;2024-03-22T12:26:35;93681.13;;;27.85;16.65
33151;BME280;19508;42.578;23.416;2024-03-22T12:29:01;93685.00;;;27.80;16.99
33151;BME280;19508;42.578;23.416;2024-03-22T12:31:27;93687.75;;;29.44;17.59
33151;BME280;19508;42.578;23.416;2024-03-22T12:33:53;93688.13;;;30.02;15.24
33151;BME280;19508;42.578;23.416;2024-03-22T12:36:18;93685.69;;;27.38;16.82
33151;BME280;19508;42.578;23.416;2024-03-22T12:38:43;93684.16;;;25.67;18.92
33151;BME280;19508;42.578;23.416;2024-03-22T12:41:09;93689.25;;;25.25;19.05
33151;BME280;19508;42.578;23.416;2024-03-22T12:43:34;93695.09;;;24.26;20.38
33151;BME280;19508;42.578;23.416;2024-03-22T12:46:01;93691.53;;;24.13;19.70
33151;BME280;19508;42.578;23.416;2024-03-22T12:48:28;93683.34;;;24.62;19.14